createdAt,value
2018-01-28T00:01:01.824Z,22.13
2018-01-28T00:03:30.248Z,20.13
2018-01-28T00:05:57.919Z,23.10
2018-01-28T00:08:26.391Z,21.60
2018-01-28T00:10:54.113Z,20.17
2018-01-28T00:13:22.564Z,16.93
2018-01-28T00:15:50.261Z,16.07
2018-01-28T00:18:18.073Z,17.27
2018-01-28T00:20:45.742Z,15.83
2018-01-28T00:23:13.423Z,15.17
2018-01-28T00:25:41.144Z,11.47
2018-01-28T00:28:09.210Z,13.63
2018-01-28T00:30:36.894Z,15.53
2018-01-28T00:33:05.310Z,12.07
2018-01-28T00:35:32.947Z,14.73
2018-01-28T00:38:00.591Z,17.80
2018-01-28T00:40:29.014Z,13.93
2018-01-28T00:42:56.770Z,13.43
2018-01-28T00:45:24.407Z,12.60
2018-01-28T00:47:52.042Z,15.33
2018-01-28T00:50:19.716Z,17.40
2018-01-28T00:52:48.163Z,13.10
2018-01-28T00:55:15.820Z,17.43
2018-01-28T00:57:43.508Z,15.73
2018-01-28T01:00:14.944Z,16.77
2018-01-28T01:02:42.584Z,15.27
2018-01-28T01:05:10.246Z,15.90
2018-01-28T01:07:37.970Z,15.87
2018-01-28T01:10:05.682Z,15.10
2018-01-28T01:12:33.353Z,15.67
2018-01-28T01:15:01.073Z,17.83
2018-01-28T01:17:28.724Z,13.87
2018-01-28T01:19:56.389Z,15.43
2018-01-28T01:22:24.022Z,14.23
2018-01-28T01:24:52.447Z,15.33
2018-01-28T01:27:20.109Z,14.00
2018-01-28T01:29:47.754Z,14.43
2018-01-28T01:32:15.416Z,13.10
2018-01-28T01:34:43.066Z,15.07
2018-01-28T01:37:10.710Z,14.83
2018-01-28T01:39:38.368Z,20.10
2018-01-28T01:42:06.009Z,13.23
2018-01-28T01:44:34.414Z,13.93
2018-01-28T01:47:02.101Z,15.10
2018-01-28T01:49:35.855Z,16.47
2018-01-28T01:52:04.282Z,14.03
2018-01-28T01:54:31.930Z,13.03
2018-01-28T01:56:59.616Z,13.00
2018-01-28T01:59:27.335Z,14.20
2018-01-28T02:01:54.978Z,13.33
2018-01-28T02:04:23.407Z,13.93
2018-01-28T02:06:51.047Z,14.83
2018-01-28T02:09:18.807Z,13.23
2018-01-28T02:11:46.485Z,10.90
2018-01-28T02:14:14.119Z,11.70
2018-01-28T02:16:41.754Z,10.70
2018-01-28T02:19:10.203Z,10.33
2018-01-28T02:21:38.626Z,9.53
2018-01-28T02:24:07.069Z,11.30
2018-01-28T02:26:34.730Z,11.87
2018-01-28T02:29:02.384Z,11.93
2018-01-28T02:31:30.021Z,15.13
2018-01-28T02:33:57.650Z,11.03
2018-01-28T02:36:25.298Z,12.00
2018-01-28T02:38:53.727Z,12.40
2018-01-28T02:41:21.371Z,11.60
2018-01-28T02:43:49.027Z,12.90
2018-01-28T02:46:16.671Z,11.10
2018-01-28T02:48:44.657Z,13.40
2018-01-28T02:51:12.302Z,13.43
2018-01-28T02:53:40.006Z,12.73
2018-01-28T02:56:07.661Z,11.20
2018-01-28T02:58:35.311Z,9.53
2018-01-28T03:01:02.967Z,8.20
2018-01-28T03:03:30.727Z,12.83
2018-01-28T03:05:58.365Z,9.07
2018-01-28T03:08:26.065Z,11.93
2018-01-28T03:10:53.793Z,9.87
2018-01-28T03:13:21.469Z,10.17
2018-01-28T03:15:49.130Z,12.00
2018-01-28T03:18:16.789Z,10.20
2018-01-28T03:20:44.470Z,9.70
2018-01-28T03:23:12.127Z,10.27
2018-01-28T03:25:40.534Z,9.17
2018-01-28T03:28:08.177Z,9.43
2018-01-28T03:30:35.827Z,12.47
2018-01-28T03:33:03.510Z,11.90
2018-01-28T03:35:31.218Z,11.07
2018-01-28T03:37:58.906Z,10.47
2018-01-28T03:40:26.662Z,12.73
2018-01-28T03:42:54.302Z,8.00
2018-01-28T03:45:21.975Z,7.40
2018-01-28T03:47:49.715Z,8.73
2018-01-28T03:50:18.209Z,8.63
2018-01-28T03:52:45.886Z,7.60
2018-01-28T03:55:13.526Z,7.43
2018-01-28T03:57:41.198Z,8.23
2018-01-28T04:00:08.848Z,7.47
2018-01-28T04:02:36.707Z,9.10
2018-01-28T04:05:04.367Z,7.03
2018-01-28T04:07:32.026Z,7.10
2018-01-28T04:09:59.674Z,7.07
2018-01-28T04:12:28.103Z,8.03
2018-01-28T04:14:55.787Z,8.30
2018-01-28T04:17:23.425Z,9.67
2018-01-28T04:19:51.055Z,8.80
2018-01-28T04:22:18.689Z,6.83
2018-01-28T04:24:47.341Z,6.57
2018-01-28T04:27:14.998Z,7.17
2018-01-28T04:29:42.673Z,7.93
2018-01-28T04:32:10.335Z,8.30
2018-01-28T04:34:37.966Z,8.07
2018-01-28T04:37:06.389Z,7.30
2018-01-28T04:39:34.848Z,7.70
2018-01-28T04:42:02.509Z,7.77
2018-01-28T04:44:30.210Z,8.50
2018-01-28T04:46:58.621Z,7.17
2018-01-28T04:49:26.285Z,7.47
2018-01-28T04:51:53.967Z,7.73
2018-01-28T04:54:21.634Z,6.87
2018-01-28T04:56:49.311Z,7.37
2018-01-28T04:59:17.766Z,7.60
2018-01-28T05:01:45.508Z,6.27
2018-01-28T05:04:13.215Z,6.17
2018-01-28T05:06:41.679Z,6.87
2018-01-28T05:09:09.415Z,7.93
2018-01-28T05:11:37.116Z,6.93
2018-01-28T05:14:05.615Z,8.27
2018-01-28T05:16:33.417Z,7.30
2018-01-28T05:19:01.128Z,6.47
2018-01-28T05:21:29.610Z,8.60
2018-01-28T05:23:58.395Z,7.00
2018-01-28T05:26:26.874Z,8.77
2018-01-28T05:28:55.301Z,7.57
2018-01-28T05:31:22.943Z,7.47
2018-01-28T05:33:50.656Z,8.40
2018-01-28T05:36:18.313Z,7.50
2018-01-28T05:38:46.009Z,8.70
2018-01-28T05:41:13.746Z,7.80
2018-01-28T05:43:41.376Z,10.43
2018-01-28T05:46:09.027Z,7.53
2018-01-28T05:48:36.694Z,9.20
2018-01-28T05:51:04.359Z,9.93
2018-01-28T05:53:32.064Z,8.83
2018-01-28T05:56:00.498Z,13.27
2018-01-28T05:58:28.185Z,12.10
2018-01-28T06:00:56.014Z,10.20
2018-01-28T06:03:23.676Z,8.63
2018-01-28T06:05:51.330Z,7.07
2018-01-28T06:08:19.034Z,7.83
2018-01-28T06:10:46.673Z,10.57
2018-01-28T06:13:14.335Z,7.70
2018-01-28T06:15:42.183Z,7.67
2018-01-28T06:18:09.864Z,7.63
2018-01-28T06:20:37.528Z,8.60
2018-01-28T06:23:05.195Z,8.77
2018-01-28T06:25:32.893Z,7.70
2018-01-28T06:28:00.546Z,6.13
2018-01-28T06:30:28.998Z,6.83
2018-01-28T06:32:56.671Z,6.37
2018-01-28T06:35:25.122Z,8.30
2018-01-28T06:37:52.777Z,8.23
2018-01-28T06:40:20.442Z,6.20
2018-01-28T06:42:48.118Z,6.57
2018-01-28T06:45:15.784Z,6.33
2018-01-28T06:47:43.440Z,6.30
2018-01-28T06:50:11.114Z,6.93
2018-01-28T06:52:39.577Z,6.37
2018-01-28T06:55:07.254Z,6.27
2018-01-28T06:57:35.690Z,7.20
2018-01-28T07:00:03.396Z,7.33
2018-01-28T07:02:31.822Z,6.10
2018-01-28T07:04:59.517Z,7.27
2018-01-28T07:07:27.156Z,6.63
2018-01-28T07:09:54.788Z,7.97
2018-01-28T07:12:22.455Z,8.53
2018-01-28T07:14:50.102Z,9.83
2018-01-28T07:17:17.762Z,13.00
2018-01-28T07:19:45.418Z,7.07
2018-01-28T07:22:13.049Z,8.67
2018-01-28T07:24:40.778Z,9.77
2018-01-28T07:27:08.439Z,11.53
2018-01-28T07:29:36.091Z,8.80
2018-01-28T07:32:03.728Z,7.83
2018-01-28T07:34:31.383Z,8.87
2018-01-28T07:36:59.026Z,9.53
2018-01-28T07:39:27.422Z,9.00
2018-01-28T07:41:55.244Z,8.20
2018-01-28T07:44:22.970Z,8.13
2018-01-28T07:46:50.605Z,7.80
2018-01-28T07:49:18.264Z,9.20
2018-01-28T07:51:45.898Z,10.87
2018-01-28T07:54:13.571Z,9.13
2018-01-28T07:56:41.982Z,9.53
2018-01-28T07:59:09.652Z,9.73
2018-01-28T08:01:37.304Z,7.53
2018-01-28T08:04:05.002Z,10.13
2018-01-28T08:06:32.680Z,9.80
2018-01-28T08:09:01.156Z,8.70
2018-01-28T08:11:43.720Z,7.87
2018-01-28T08:14:16.987Z,7.73
2018-01-28T08:16:44.654Z,8.03
2018-01-28T08:19:12.355Z,6.20
2018-01-28T08:21:40.043Z,8.03
2018-01-28T08:24:07.760Z,7.30
2018-01-28T08:26:37.100Z,8.30
2018-01-28T08:29:07.290Z,8.53
2018-01-28T08:31:34.962Z,8.00
2018-01-28T08:34:02.655Z,8.17
2018-01-28T08:36:31.093Z,9.40
2018-01-28T08:38:58.790Z,7.70
2018-01-28T08:41:27.372Z,10.10
2018-01-28T08:43:55.782Z,10.30
2018-01-28T08:46:23.453Z,10.97
2018-01-28T08:48:51.106Z,9.10
2018-01-28T08:51:18.740Z,8.73
2018-01-28T08:53:47.187Z,8.90
2018-01-28T08:56:14.872Z,8.73
2018-01-28T08:58:42.499Z,9.20
2018-01-28T09:01:10.135Z,8.13
2018-01-28T09:03:37.772Z,6.97
2018-01-28T09:06:05.460Z,8.90
2018-01-28T09:08:33.118Z,6.43
2018-01-28T09:11:00.767Z,11.00
2018-01-28T09:13:28.394Z,8.17
2018-01-28T09:15:56.802Z,7.47
2018-01-28T09:18:24.456Z,8.13
2018-01-28T09:20:52.082Z,8.70
2018-01-28T09:23:19.732Z,12.13
2018-01-28T09:25:47.419Z,10.13
2018-01-28T09:28:15.955Z,13.93
2018-01-28T09:30:43.613Z,10.30
2018-01-28T09:33:11.288Z,13.07
2018-01-28T09:35:38.980Z,11.57
2018-01-28T09:38:07.638Z,14.30
2018-01-28T09:40:35.356Z,15.07
2018-01-28T09:43:03.052Z,9.33
2018-01-28T09:45:30.726Z,10.40
2018-01-28T09:47:58.429Z,10.67
2018-01-28T09:50:26.173Z,10.60
2018-01-28T09:52:54.578Z,10.60
2018-01-28T09:55:22.992Z,9.57
2018-01-28T09:57:50.644Z,11.63
2018-01-28T10:00:18.334Z,10.03
2018-01-28T10:02:45.975Z,10.43
2018-01-28T10:05:13.619Z,10.97
2018-01-28T10:07:41.418Z,9.80
2018-01-28T10:10:09.122Z,10.03
2018-01-28T10:12:36.864Z,11.93
2018-01-28T10:15:05.343Z,15.73
2018-01-28T10:17:33.764Z,17.77
2018-01-28T10:20:01.476Z,15.17
2018-01-28T10:22:29.958Z,15.43
2018-01-28T10:24:58.406Z,15.97
2018-01-28T10:27:26.087Z,14.40
2018-01-28T10:29:54.613Z,14.20
2018-01-28T10:32:22.299Z,13.90
2018-01-28T10:34:49.975Z,16.40
2018-01-28T10:37:17.645Z,15.67
2018-01-28T10:39:45.394Z,18.40
2018-01-28T10:42:13.071Z,16.30
2018-01-28T10:44:40.723Z,17.03
2018-01-28T10:47:08.398Z,18.43
2018-01-28T10:49:37.606Z,14.50
2018-01-28T10:52:06.478Z,15.93
2018-01-28T10:54:34.187Z,17.57
2018-01-28T10:57:01.885Z,17.83
2018-01-28T10:59:29.564Z,16.67
2018-01-28T11:01:57.318Z,15.57
2018-01-28T11:04:25.033Z,13.73
2018-01-28T11:06:52.723Z,14.93
2018-01-28T11:09:20.403Z,16.40
2018-01-28T11:11:48.144Z,14.37
2018-01-28T11:14:15.776Z,15.97
2018-01-28T11:16:43.469Z,15.37
2018-01-28T11:19:11.145Z,17.70
2018-01-28T11:21:38.862Z,15.40
2018-01-28T11:24:06.545Z,15.93
2018-01-28T11:26:34.206Z,14.57
2018-01-28T11:29:01.860Z,15.70
2018-01-28T11:31:29.586Z,15.07
2018-01-28T11:33:57.284Z,17.63
2018-01-28T11:36:24.983Z,17.70
2018-01-28T11:38:52.635Z,16.40
2018-01-28T11:41:20.299Z,16.63
2018-01-28T11:43:47.962Z,16.47
2018-01-28T11:46:15.618Z,16.57
2018-01-28T11:48:43.370Z,16.97
2018-01-28T11:51:11.010Z,16.40
2018-01-28T11:53:38.666Z,15.60
2018-01-28T11:56:06.306Z,14.23
2018-01-28T11:58:34.054Z,14.60
2018-01-28T12:01:01.770Z,14.03
2018-01-28T12:03:29.426Z,16.03
2018-01-28T12:05:57.134Z,14.67
2018-01-28T12:08:24.879Z,15.77
2018-01-28T12:10:52.605Z,16.07
2018-01-28T12:13:20.333Z,16.40
2018-01-28T12:15:48.003Z,14.60
2018-01-28T12:18:15.790Z,13.27
2018-01-28T12:20:43.455Z,17.47
2018-01-28T12:23:11.181Z,15.73
2018-01-28T12:25:38.871Z,19.03
2018-01-28T12:28:06.634Z,16.43
2018-01-28T12:30:34.440Z,15.37
2018-01-28T12:33:02.929Z,15.73
2018-01-28T12:35:31.334Z,17.23
2018-01-28T12:37:58.990Z,17.17
2018-01-28T12:40:26.750Z,19.97
2018-01-28T12:42:54.402Z,17.67
2018-01-28T12:45:22.817Z,17.73
2018-01-28T12:47:50.458Z,19.33
2018-01-28T12:50:18.113Z,22.87
2018-01-28T12:52:45.770Z,22.53
2018-01-28T12:55:13.410Z,25.90
2018-01-28T12:57:41.051Z,24.37
2018-01-28T13:00:08.710Z,28.90
2018-01-28T13:02:36.371Z,31.00
2018-01-28T13:05:04.025Z,31.67
2018-01-28T13:07:31.691Z,31.43
2018-01-28T13:09:59.498Z,30.00
2018-01-28T13:12:27.139Z,27.30
2018-01-28T13:14:55.609Z,29.57
2018-01-28T13:17:24.022Z,24.93
2018-01-28T13:19:51.679Z,24.90
2018-01-28T13:22:19.330Z,25.03
2018-01-28T13:24:46.983Z,25.50
2018-01-28T13:27:15.502Z,25.43
2018-01-28T13:29:43.274Z,25.40
2018-01-28T13:32:11.028Z,23.53
2018-01-28T13:34:38.733Z,24.93
2018-01-28T13:37:07.169Z,25.73
2018-01-28T13:39:34.837Z,26.33
2018-01-28T13:42:02.531Z,24.27
2018-01-28T13:44:30.229Z,28.97
2018-01-28T13:46:58.536Z,27.43
2018-01-28T13:49:26.557Z,24.10
2018-01-28T13:51:55.286Z,27.93
2018-01-28T13:54:23.375Z,26.03
2018-01-28T13:56:51.247Z,25.90
2018-01-28T13:59:18.964Z,25.90
2018-01-28T14:01:46.642Z,25.23
2018-01-28T14:04:14.462Z,26.27
2018-01-28T14:06:42.884Z,26.47
2018-01-28T14:09:10.624Z,27.93
2018-01-28T14:11:38.527Z,27.00
2018-01-28T14:14:06.254Z,28.67
2018-01-28T14:16:33.911Z,30.13
2018-01-28T14:19:02.200Z,27.17
2018-01-28T14:21:30.727Z,27.33
2018-01-28T14:23:58.431Z,24.03
2018-01-28T14:26:26.141Z,31.53
2018-01-28T14:28:54.085Z,25.77
2018-01-28T14:31:21.919Z,31.47
2018-01-28T14:33:49.639Z,28.60
2018-01-28T14:36:18.166Z,28.27
2018-01-28T14:38:45.873Z,30.20
2018-01-28T14:41:13.607Z,28.83
2018-01-28T14:43:41.378Z,30.43
2018-01-28T14:46:09.195Z,29.67
2018-01-28T14:48:38.151Z,26.40
2018-01-28T14:51:05.874Z,25.20
2018-01-28T14:53:33.547Z,27.57
2018-01-28T14:56:01.250Z,31.27
2018-01-28T14:58:29.725Z,27.97
2018-01-28T15:00:57.455Z,29.67
2018-01-28T15:03:25.144Z,32.67
2018-01-28T15:05:52.910Z,33.27
2018-01-28T15:08:21.040Z,27.07
2018-01-28T15:10:48.744Z,26.57
2018-01-28T15:13:17.704Z,29.30
2018-01-28T15:15:45.613Z,30.73
2018-01-28T15:18:14.062Z,32.40
2018-01-28T15:20:41.762Z,30.83
2018-01-28T15:23:10.199Z,30.13
2018-01-28T15:25:37.861Z,29.30
2018-01-28T15:28:05.640Z,33.30
2018-01-28T15:30:33.338Z,33.03
2018-01-28T15:33:01.815Z,32.40
2018-01-28T15:35:30.228Z,35.13
2018-01-28T15:37:57.944Z,34.97
2018-01-28T15:40:26.811Z,37.67
2018-01-28T15:42:54.546Z,36.43
2018-01-28T15:45:23.015Z,35.40
2018-01-28T15:47:50.735Z,32.17
2018-01-28T15:50:19.253Z,39.03
2018-01-28T15:52:46.987Z,42.53
2018-01-28T15:55:15.464Z,44.53
2018-01-28T15:57:44.021Z,44.13
2018-01-28T16:00:11.668Z,49.97
2018-01-28T16:02:39.354Z,47.70
2018-01-28T16:05:07.838Z,51.73
2018-01-28T16:07:36.330Z,46.83
2018-01-28T16:10:05.360Z,50.17
2018-01-28T16:12:33.031Z,44.93
2018-01-28T16:15:00.722Z,47.03
2018-01-28T16:17:28.474Z,48.50
2018-01-28T16:19:56.193Z,44.80
2018-01-28T16:22:23.885Z,35.77
2018-01-28T16:24:51.548Z,38.57
2018-01-28T16:27:19.629Z,33.33
2018-01-28T16:29:47.338Z,44.47
2018-01-28T16:32:15.176Z,42.97
2018-01-28T16:34:43.673Z,47.90
2018-01-28T16:37:12.097Z,44.03
2018-01-28T16:39:40.531Z,46.87
2018-01-28T16:42:08.208Z,51.00
2018-01-28T16:44:35.869Z,51.17
2018-01-28T16:47:03.609Z,39.37
2018-01-28T16:49:32.038Z,35.80
2018-01-28T16:51:59.833Z,45.10
2018-01-28T16:54:27.857Z,39.33
2018-01-28T16:57:01.561Z,35.90
2018-01-28T16:59:30.222Z,30.43
2018-01-28T17:01:59.127Z,27.10
2018-01-28T17:04:26.886Z,32.57
2018-01-28T17:06:54.576Z,30.43
2018-01-28T17:09:22.325Z,32.30
2018-01-28T17:11:50.019Z,29.33
2018-01-28T17:14:17.779Z,26.87
2018-01-28T17:16:45.560Z,27.43
2018-01-28T17:19:14.009Z,25.03
2018-01-28T17:21:43.275Z,27.63
2018-01-28T17:24:10.986Z,27.57
2018-01-28T17:26:38.708Z,27.37
2018-01-28T17:29:06.458Z,25.27
2018-01-28T17:31:34.191Z,25.00
2018-01-28T17:34:02.719Z,29.33
2018-01-28T17:36:30.479Z,25.30
2018-01-28T17:38:58.619Z,26.90
2018-01-28T17:41:26.437Z,27.43
2018-01-28T17:43:54.224Z,25.90
2018-01-28T17:46:22.763Z,25.60
2018-01-28T17:48:50.834Z,30.70
2018-01-28T17:51:18.565Z,24.57
2018-01-28T17:53:46.294Z,25.13
2018-01-28T17:56:14.025Z,27.10
2018-01-28T17:58:41.858Z,22.93
2018-01-28T18:01:09.627Z,26.47
2018-01-28T18:03:37.356Z,27.30
2018-01-28T18:06:06.524Z,29.03
2018-01-28T18:08:35.083Z,27.33
2018-01-28T18:11:02.836Z,27.90
2018-01-28T18:13:30.553Z,25.70
2018-01-28T18:15:59.032Z,24.77
2018-01-28T18:18:27.531Z,25.70
2018-01-28T18:20:55.256Z,27.13
2018-01-28T18:23:22.998Z,30.70
2018-01-28T18:25:50.708Z,27.93
2018-01-28T18:28:19.328Z,27.30
2018-01-28T18:30:47.036Z,29.57
2018-01-28T18:33:14.822Z,27.90
2018-01-28T18:35:43.322Z,28.30
2018-01-28T18:38:11.060Z,29.47
2018-01-28T18:40:39.551Z,27.00
2018-01-28T18:43:07.261Z,27.97
2018-01-28T18:45:34.987Z,32.33
2018-01-28T18:48:02.777Z,29.27
2018-01-28T18:50:30.573Z,29.70
2018-01-28T18:52:58.329Z,36.13
2018-01-28T18:55:26.074Z,29.40
2018-01-28T18:57:54.563Z,29.33
2018-01-28T19:00:22.293Z,30.60
2018-01-28T19:02:50.068Z,34.20
2018-01-28T19:05:17.805Z,32.63
2018-01-28T19:07:45.509Z,30.00
2018-01-28T19:10:13.263Z,33.80
2018-01-28T19:12:40.983Z,35.10
2018-01-28T19:15:09.483Z,33.00
2018-01-28T19:17:37.160Z,33.37
2018-01-28T19:20:04.850Z,32.77
2018-01-28T19:22:32.525Z,31.40
2018-01-28T19:25:00.314Z,31.90
2018-01-28T19:27:28.784Z,29.90
2018-01-28T19:29:57.218Z,31.73
2018-01-28T19:32:24.898Z,25.40
2018-01-28T19:34:52.642Z,25.60
2018-01-28T19:37:20.321Z,27.00
2018-01-28T19:39:48.050Z,25.23
2018-01-28T19:42:15.813Z,25.73
2018-01-28T19:44:43.505Z,30.57
2018-01-28T19:47:11.227Z,30.80
2018-01-28T19:49:39.643Z,33.00
2018-01-28T19:52:07.320Z,30.63
2018-01-28T19:54:35.804Z,31.93
2018-01-28T19:57:04.287Z,30.63
2018-01-28T19:59:32.751Z,31.73
2018-01-28T20:02:00.480Z,29.40
2018-01-28T20:04:28.183Z,29.90
2018-01-28T20:06:56.723Z,34.67
2018-01-28T20:09:24.434Z,29.20
2018-01-28T20:11:52.898Z,37.00
2018-01-28T20:14:20.619Z,31.00
2018-01-28T20:16:48.421Z,38.50
2018-01-28T20:19:16.944Z,32.63
2018-01-28T20:21:45.254Z,32.80
2018-01-28T20:24:12.992Z,30.20
2018-01-28T20:26:40.810Z,32.90
2018-01-28T20:29:09.360Z,31.23
2018-01-28T20:31:37.114Z,31.63
2018-01-28T20:34:04.881Z,33.07
2018-01-28T20:36:32.609Z,33.27
2018-01-28T20:39:00.390Z,34.20
2018-01-28T20:41:28.095Z,32.83
2018-01-28T20:43:55.801Z,35.20
2018-01-28T20:46:23.516Z,39.10
2018-01-28T20:48:51.454Z,32.27
2018-01-28T20:51:19.199Z,33.37
2018-01-28T20:53:46.933Z,31.00
2018-01-28T20:56:15.423Z,29.50
2018-01-28T20:58:43.155Z,28.67
2018-01-28T21:01:10.906Z,28.63
2018-01-28T21:03:38.591Z,23.60
2018-01-28T21:06:07.204Z,26.47
2018-01-28T21:08:35.005Z,22.33
2018-01-28T21:11:03.508Z,26.50
2018-01-28T21:13:32.034Z,30.63
2018-01-28T21:15:59.759Z,28.47
2018-01-28T21:18:28.239Z,28.63
2018-01-28T21:20:56.726Z,27.90
2018-01-28T21:23:25.328Z,29.77
2018-01-28T21:25:53.069Z,26.33
2018-01-28T21:28:21.576Z,24.97
2018-01-28T21:30:50.957Z,23.27
2018-01-28T21:33:19.987Z,26.87
2018-01-28T21:35:47.703Z,21.53
2018-01-28T21:38:16.260Z,22.17
2018-01-28T21:40:44.001Z,19.00
2018-01-28T21:43:11.687Z,21.03
2018-01-28T21:45:39.415Z,21.70
2018-01-28T21:48:07.144Z,22.17
2018-01-28T21:50:35.588Z,21.93
2018-01-28T21:53:03.306Z,21.97
2018-01-28T21:55:30.980Z,24.17
2018-01-28T21:57:58.675Z,23.30
2018-01-28T22:00:26.394Z,23.70
2018-01-28T22:02:54.133Z,23.47
2018-01-28T22:05:22.571Z,25.63
2018-01-28T22:07:50.319Z,24.80
2018-01-28T22:10:18.275Z,26.43
2018-01-28T22:12:46.018Z,27.80
2018-01-28T22:15:13.897Z,21.63
2018-01-28T22:17:41.574Z,26.03
2018-01-28T22:20:09.339Z,20.47
2018-01-28T22:22:37.838Z,21.10
2018-01-28T22:25:05.506Z,19.30
2018-01-28T22:27:33.193Z,23.33
2018-01-28T22:30:01.638Z,22.93
2018-01-28T22:32:29.340Z,23.47
2018-01-28T22:34:57.050Z,23.07
2018-01-28T22:37:24.722Z,26.80
2018-01-28T22:39:52.390Z,26.93
2018-01-28T22:42:20.116Z,21.33
2018-01-28T22:44:47.789Z,20.37
2018-01-28T22:47:15.541Z,23.10
2018-01-28T22:49:43.265Z,22.50
2018-01-28T22:52:11.720Z,21.83
2018-01-28T22:54:39.407Z,24.30
2018-01-28T22:57:07.138Z,24.10
2018-01-28T22:59:34.812Z,20.70
2018-01-28T23:02:03.255Z,19.17
2018-01-28T23:04:30.938Z,22.60
2018-01-28T23:06:58.699Z,24.50
2018-01-28T23:09:26.388Z,19.23
2018-01-28T23:11:54.849Z,24.63
2018-01-28T23:14:22.566Z,27.90
2018-01-28T23:16:50.256Z,25.33
2018-01-28T23:19:17.972Z,26.37
2018-01-28T23:21:45.642Z,24.63
2018-01-28T23:24:13.302Z,22.47
2018-01-28T23:26:41.082Z,21.93
2018-01-28T23:29:08.762Z,22.00
2018-01-28T23:31:36.488Z,21.80
2018-01-28T23:34:04.267Z,25.27
2018-01-28T23:36:31.926Z,20.03
2018-01-28T23:38:59.704Z,20.70
2018-01-28T23:41:27.421Z,20.47
2018-01-28T23:43:55.112Z,23.17
2018-01-28T23:46:22.793Z,19.33
2018-01-28T23:48:50.465Z,21.30
2018-01-28T23:51:18.140Z,22.53
2018-01-28T23:53:45.805Z,21.90
2018-01-28T23:56:14.295Z,19.57
2018-01-28T23:58:42.735Z,20.43
